Terminal Aerodrome Forecast
Issued by NWS

Home | Current Version | Previous Version | Text Only | Print | Product List | Glossary On
Versions: 1 2 3 4 5 6 7 8 9 10 11 12 13 14 15 16 17 18 19 20 21 22 23
000
FTUS43 KIND 302100 AAA
TAFLAF
TAF AMD
KLAF 302141Z 3022/3118 28011KT P6SM SCT080
     FM310100 00000KT P6SM FEW050
     FM310800 00000KT 3SM BR SKC
     FM311300 24005KT P6SM FEW050=

USA.gov is the U.S. government's official web portal to all federal, state and local government web resources and services.